Terminal Aerodrome Forecast
Issued by NWS

Home | Current Version | Previous Version | Graphics & Text | Print | Product List | Glossary On
Versions: 1 2 3 4 5 6 7 8 9 10 11 12 13 14 15 16 17 18 19
000
FTUS43 KICT 252322
TAFSLN
TAF
KSLN 252322Z 2600/2624 VRB04KT 6SM -SHRA OVC060
      TEMPO 2600/2603 4SM SHRA OVC015
     FM260300 36007KT 6SM -SHRA OVC020
     FM260800 35008KT 6SM -SHRA OVC010
     FM261200 35010KT P6SM OVC012
     FM261800 36011KT P6SM OVC020=

USA.gov is the U.S. government's official web portal to all federal, state and local government web resources and services.